createdAt,value
2023-10-09T00:00:33.207Z,4.20
2023-10-09T00:03:02.166Z,3.80
2023-10-09T00:05:41.029Z,4.88
2023-10-09T00:08:10.513Z,4.60
2023-10-09T00:10:46.901Z,4.05
2023-10-09T00:13:14.619Z,3.70
2023-10-09T00:15:42.843Z,5.45
2023-10-09T00:18:13.676Z,4.10
2023-10-09T00:20:44.189Z,3.67
2023-10-09T00:23:17.138Z,3.70
2023-10-09T00:26:07.767Z,4.72
2023-10-09T00:28:36.484Z,3.58
2023-10-09T00:31:08.840Z,3.50
2023-10-09T00:33:36.598Z,3.97
2023-10-09T00:36:11.249Z,3.35
2023-10-09T00:38:46.507Z,3.20
2023-10-09T00:41:20.707Z,3.90
2023-10-09T00:43:51.095Z,4.20
2023-10-09T00:46:26.031Z,3.55
2023-10-09T00:48:56.581Z,3.63
2023-10-09T00:51:28.241Z,4.15
2023-10-09T00:53:59.232Z,4.63
2023-10-09T00:56:40.438Z,4.35
2023-10-09T00:59:15.896Z,4.55
2023-10-09T01:01:57.865Z,5.00
2023-10-09T01:04:27.502Z,3.78
2023-10-09T01:07:09.839Z,4.00
2023-10-09T01:09:39.671Z,4.05
2023-10-09T01:12:07.939Z,4.47
2023-10-09T01:14:37.937Z,4.57
2023-10-09T01:17:10.289Z,4.20
2023-10-09T01:19:39.286Z,4.90
2023-10-09T01:22:14.931Z,4.32
2023-10-09T01:24:44.922Z,4.50
2023-10-09T01:27:17.025Z,4.25
2023-10-09T01:29:47.433Z,4.50
2023-10-09T01:32:20.575Z,4.97
2023-10-09T01:34:50.406Z,4.80
2023-10-09T01:37:20.841Z,4.30
2023-10-09T01:39:52.247Z,4.22
2023-10-09T01:42:29.206Z,4.70
2023-10-09T01:45:01.709Z,5.57
2023-10-09T01:47:32.974Z,4.80
2023-10-09T01:50:06.060Z,5.60
2023-10-09T01:52:37.233Z,4.18
2023-10-09T01:55:16.748Z,4.75
2023-10-09T01:57:46.036Z,5.03
2023-10-09T02:00:24.581Z,5.60
2023-10-09T02:02:53.043Z,4.63
2023-10-09T02:05:26.442Z,4.78
2023-10-09T02:07:54.286Z,5.15
2023-10-09T02:10:27.199Z,4.78
2023-10-09T02:12:59.176Z,4.72
2023-10-09T02:18:41.284Z,4.25
2023-10-09T02:21:15.653Z,5.03
2023-10-09T02:23:47.663Z,4.45
2023-10-09T02:26:21.423Z,4.93
2023-10-09T02:28:54.750Z,3.97
2023-10-09T02:31:24.452Z,4.18
2023-10-09T02:33:55.641Z,4.68
2023-10-09T02:36:23.575Z,4.60
2023-10-09T02:38:54.466Z,4.32
2023-10-09T02:41:29.348Z,5.50
2023-10-09T02:43:57.475Z,4.45
2023-10-09T02:46:31.489Z,4.50
2023-10-09T02:49:05.108Z,4.90
2023-10-09T02:51:34.788Z,4.18
2023-10-09T02:54:09.185Z,4.88
2023-10-09T02:56:44.198Z,6.43
2023-10-09T02:59:11.878Z,5.20
2023-10-09T03:01:40.528Z,5.47
2023-10-09T03:04:12.235Z,6.03
2023-10-09T03:06:44.542Z,5.93
2023-10-09T03:09:18.772Z,6.68
2023-10-09T03:11:49.222Z,5.65
2023-10-09T03:14:18.081Z,6.85
2023-10-09T03:16:48.190Z,5.55
2023-10-09T03:19:17.611Z,6.22
2023-10-09T03:21:45.351Z,5.68
2023-10-09T03:24:13.895Z,6.07
2023-10-09T03:26:41.756Z,6.13
2023-10-09T03:29:11.324Z,6.22
2023-10-09T03:31:39.383Z,6.65
2023-10-09T03:34:07.548Z,6.53
2023-10-09T03:36:39.821Z,6.80
2023-10-09T03:39:19.532Z,6.85
2023-10-09T03:41:48.434Z,6.70
2023-10-09T03:44:19.226Z,6.60
2023-10-09T03:46:47.738Z,7.32
2023-10-09T03:49:23.158Z,7.97
2023-10-09T03:51:52.481Z,7.90
2023-10-09T03:54:22.050Z,7.10
2023-10-09T03:56:51.125Z,7.53
2023-10-09T03:59:21.814Z,7.30
2023-10-09T04:01:51.769Z,7.85
2023-10-09T04:04:19.936Z,8.05
2023-10-09T04:06:48.559Z,8.13
2023-10-09T04:09:36.809Z,9.15
2023-10-09T04:12:26.218Z,7.15
2023-10-09T04:14:59.078Z,8.15
2023-10-09T04:17:36.617Z,7.45
2023-10-09T04:20:47.775Z,8.98
2023-10-09T04:23:17.750Z,7.80
2023-10-09T04:25:52.049Z,7.63
2023-10-09T04:28:20.816Z,7.60
2023-10-09T04:30:54.706Z,8.82
2023-10-09T04:33:41.936Z,7.97
2023-10-09T04:36:24.215Z,7.55
2023-10-09T04:39:17.128Z,6.97
2023-10-09T04:42:15.680Z,7.45
2023-10-09T04:45:00.718Z,7.45
2023-10-09T04:47:37.017Z,8.13
2023-10-09T04:50:12.801Z,8.25
2023-10-09T04:52:54.523Z,7.25
2023-10-09T04:55:25.745Z,6.93
2023-10-09T04:58:10.006Z,8.57
2023-10-09T05:01:03.344Z,6.72
2023-10-09T05:03:47.355Z,6.97
2023-10-09T05:06:44.902Z,8.63
2023-10-09T05:09:16.370Z,7.53
2023-10-09T05:12:10.949Z,7.47
2023-10-09T05:14:48.969Z,8.73
2023-10-09T05:17:24.677Z,8.88
2023-10-09T05:20:18.788Z,8.65
2023-10-09T05:22:58.337Z,8.60
2023-10-09T05:25:54.392Z,7.97
2023-10-09T05:28:32.301Z,8.57
2023-10-09T05:31:07.809Z,8.35
2023-10-09T05:36:38.870Z,9.77
2023-10-09T05:39:42.272Z,8.75
2023-10-09T05:42:13.381Z,8.93
2023-10-09T05:45:13.000Z,10.32
2023-10-09T05:47:54.404Z,10.52
2023-10-09T05:50:36.968Z,10.07
2023-10-09T05:53:27.760Z,10.23
2023-10-09T05:56:12.615Z,10.98
2023-10-09T05:58:57.468Z,10.53
2023-10-09T06:01:44.623Z,10.47
2023-10-09T06:04:18.769Z,10.10
2023-10-09T06:06:47.267Z,10.20
2023-10-09T06:09:32.771Z,10.95
2023-10-09T06:12:17.890Z,9.80
2023-10-09T06:15:02.636Z,10.32
2023-10-09T06:17:44.862Z,10.68
2023-10-09T06:20:28.228Z,10.35
2023-10-09T06:22:58.909Z,10.45
2023-10-09T06:25:47.011Z,10.43
2023-10-09T06:28:14.965Z,10.07
2023-10-09T06:30:47.692Z,10.02
2023-10-09T06:33:31.060Z,10.63
2023-10-09T06:36:09.519Z,11.13
2023-10-09T06:38:53.458Z,12.73
2023-10-09T06:41:35.959Z,10.15
2023-10-09T06:44:07.607Z,10.40
2023-10-09T06:46:53.854Z,10.38
2023-10-09T06:49:30.354Z,10.15
2023-10-09T06:52:14.673Z,10.60
2023-10-09T06:54:50.728Z,10.75
2023-10-09T06:57:40.606Z,10.38
2023-10-09T07:00:31.752Z,10.80
2023-10-09T07:03:06.488Z,11.15
2023-10-09T07:05:49.691Z,11.40
2023-10-09T07:08:33.400Z,10.85
2023-10-09T07:11:25.506Z,11.35
2023-10-09T07:13:57.444Z,12.05
2023-10-09T07:16:30.115Z,10.80
2023-10-09T07:19:10.867Z,11.13
2023-10-09T07:21:54.032Z,11.57
2023-10-09T07:24:26.142Z,12.57
2023-10-09T07:27:03.152Z,10.95
2023-10-09T07:29:48.662Z,11.45
2023-10-09T07:34:54.893Z,9.95
2023-10-09T07:37:24.075Z,11.13
2023-10-09T07:39:59.449Z,13.48
2023-10-09T07:42:45.005Z,11.75
2023-10-09T07:45:34.852Z,11.50
2023-10-09T07:48:06.501Z,12.63
2023-10-09T07:50:42.275Z,12.85
2023-10-09T07:53:27.412Z,11.73
2023-10-09T07:55:59.508Z,10.85
2023-10-09T07:58:27.654Z,11.55
2023-10-09T08:01:17.466Z,11.43
2023-10-09T08:03:50.106Z,11.93
2023-10-09T08:07:04.402Z,10.25
2023-10-09T08:09:47.954Z,10.40
2023-10-09T08:12:31.965Z,10.45
2023-10-09T08:15:13.947Z,11.38
2023-10-09T08:17:40.669Z,10.82
2023-10-09T08:20:13.417Z,11.35
2023-10-09T08:22:51.476Z,10.70
2023-10-09T08:25:29.137Z,9.48
2023-10-09T08:27:58.769Z,10.50
2023-10-09T08:30:51.699Z,10.20
2023-10-09T08:34:16.185Z,10.52
2023-10-09T08:36:32.552Z,11.45
2023-10-09T08:39:09.326Z,9.93
2023-10-09T08:41:38.483Z,9.93
2023-10-09T08:44:08.042Z,10.60
2023-10-09T08:46:38.210Z,11.52
2023-10-09T08:49:11.796Z,11.60
2023-10-09T08:51:39.936Z,12.07
2023-10-09T08:54:13.111Z,10.57
2023-10-09T08:56:50.747Z,11.57
2023-10-09T08:59:21.046Z,11.15
2023-10-09T09:01:53.103Z,10.30
2023-10-09T09:04:36.042Z,10.38
2023-10-09T09:07:05.380Z,11.52
2023-10-09T09:09:35.102Z,11.38
2023-10-09T09:12:03.437Z,12.52
2023-10-09T09:14:41.419Z,11.43
2023-10-09T09:17:12.669Z,11.68
2023-10-09T09:19:40.710Z,11.13
2023-10-09T09:22:15.033Z,11.40
2023-10-09T09:25:01.713Z,13.07
2023-10-09T09:27:50.625Z,11.20
2023-10-09T09:30:26.576Z,11.85
2023-10-09T09:33:08.367Z,10.82
2023-10-09T09:35:36.036Z,10.52
2023-10-09T09:38:06.488Z,10.43
2023-10-09T09:40:42.564Z,10.77
2023-10-09T09:43:22.693Z,11.07
2023-10-09T09:45:52.252Z,10.95
2023-10-09T09:48:20.256Z,11.75
2023-10-09T09:50:48.843Z,10.27
2023-10-09T09:53:18.792Z,10.98
2023-10-09T09:55:53.172Z,11.40
2023-10-09T09:58:21.627Z,10.02
2023-10-09T10:00:54.186Z,10.50
2023-10-09T10:03:26.804Z,10.70
2023-10-09T10:05:57.950Z,9.82
2023-10-09T10:08:32.950Z,9.95
2023-10-09T10:13:54.096Z,9.75
2023-10-09T10:16:22.297Z,9.60
2023-10-09T10:19:01.398Z,11.35
2023-10-09T10:21:39.901Z,10.20
2023-10-09T10:24:33.810Z,11.02
2023-10-09T10:27:25.953Z,11.05
2023-10-09T10:30:12.302Z,10.38
2023-10-09T10:32:55.177Z,11.52
2023-10-09T10:35:33.826Z,10.50
2023-10-09T10:38:12.724Z,10.13
2023-10-09T10:40:42.200Z,10.05
2023-10-09T10:43:14.888Z,10.10
2023-10-09T10:45:45.918Z,10.50
2023-10-09T10:48:24.467Z,9.85
2023-10-09T10:50:59.330Z,8.90
2023-10-09T10:53:30.432Z,9.27
2023-10-09T10:55:59.603Z,9.30
2023-10-09T10:58:36.684Z,8.88
2023-10-09T11:01:16.557Z,7.88
2023-10-09T11:04:00.108Z,8.95
2023-10-09T11:06:38.069Z,8.25
2023-10-09T11:09:22.381Z,8.73
2023-10-09T11:11:51.491Z,8.43
2023-10-09T11:14:24.646Z,9.10
2023-10-09T11:16:59.009Z,8.30
2023-10-09T11:19:33.724Z,8.15
2023-10-09T11:22:32.300Z,8.17
2023-10-09T11:25:13.689Z,8.85
2023-10-09T11:27:51.263Z,7.43
2023-10-09T11:30:34.213Z,8.80
2023-10-09T11:33:08.784Z,7.20
2023-10-09T11:35:37.177Z,9.48
2023-10-09T11:38:22.256Z,9.40
2023-10-09T11:43:53.402Z,9.95
2023-10-09T11:46:40.334Z,8.63
2023-10-09T11:49:27.224Z,9.07
2023-10-09T11:52:32.550Z,9.68
2023-10-09T11:55:01.208Z,9.25
2023-10-09T11:57:34.469Z,10.23
2023-10-09T12:00:02.817Z,8.80
2023-10-09T12:02:32.537Z,10.23
2023-10-09T12:05:00.368Z,8.88
2023-10-09T12:07:28.895Z,9.40
2023-10-09T12:09:57.849Z,10.95
2023-10-09T12:12:28.295Z,11.35
2023-10-09T12:14:55.974Z,9.52
2023-10-09T12:17:26.963Z,10.77
2023-10-09T12:19:57.503Z,10.00
2023-10-09T12:22:28.413Z,9.10
2023-10-09T12:24:58.347Z,8.10
2023-10-09T12:27:30.034Z,7.93
2023-10-09T12:29:58.201Z,8.30
2023-10-09T12:32:26.241Z,9.25
2023-10-09T12:34:53.986Z,8.65
2023-10-09T12:37:24.822Z,9.35
2023-10-09T12:39:56.869Z,9.50
2023-10-09T12:42:24.798Z,9.18
2023-10-09T12:44:53.800Z,10.63
2023-10-09T12:47:21.630Z,8.77
2023-10-09T12:49:50.434Z,9.45
2023-10-09T12:52:18.330Z,7.88
2023-10-09T12:54:47.747Z,8.45
2023-10-09T12:57:16.462Z,8.63
2023-10-09T12:59:47.093Z,8.07
2023-10-09T13:02:30.040Z,8.73
2023-10-09T13:04:58.415Z,8.95
2023-10-09T13:07:26.849Z,8.40
2023-10-09T13:10:08.649Z,8.43
2023-10-09T13:12:39.624Z,7.63
2023-10-09T13:15:10.949Z,7.50
2023-10-09T13:17:40.363Z,7.07
2023-10-09T13:20:14.376Z,7.68
2023-10-09T13:22:42.766Z,7.93
2023-10-09T13:25:31.503Z,8.63
2023-10-09T13:28:04.717Z,7.13
2023-10-09T13:30:41.162Z,7.85
2023-10-09T13:33:18.419Z,6.88
2023-10-09T13:35:52.120Z,6.50
2023-10-09T13:38:20.005Z,7.72
2023-10-09T13:40:47.702Z,6.70
2023-10-09T13:43:18.330Z,7.20
2023-10-09T13:45:51.096Z,7.00
2023-10-09T13:48:22.506Z,7.07
2023-10-09T13:50:50.617Z,6.40
2023-10-09T13:53:19.341Z,7.18
2023-10-09T13:55:48.410Z,7.78
2023-10-09T13:58:21.963Z,6.72
2023-10-09T14:00:51.260Z,7.72
2023-10-09T14:03:23.821Z,7.78
2023-10-09T14:05:56.013Z,5.78
2023-10-09T14:08:24.640Z,7.70
2023-10-09T14:10:52.521Z,6.38
2023-10-09T14:13:27.459Z,7.38
2023-10-09T14:18:25.628Z,6.90
2023-10-09T14:20:57.786Z,7.30
2023-10-09T14:23:32.585Z,7.78
2023-10-09T14:26:03.397Z,7.80
2023-10-09T14:28:31.154Z,6.90
2023-10-09T14:31:00.641Z,7.22
2023-10-09T14:33:37.992Z,8.48
2023-10-09T14:36:06.996Z,6.28
2023-10-09T14:38:39.669Z,6.93
2023-10-09T14:41:12.710Z,8.30
2023-10-09T14:43:41.042Z,7.43
2023-10-09T14:46:12.021Z,7.07
2023-10-09T14:48:51.030Z,8.52
2023-10-09T14:51:18.784Z,7.05
2023-10-09T14:53:46.890Z,8.13
2023-10-09T14:56:17.243Z,7.28
2023-10-09T14:58:48.028Z,8.25
2023-10-09T15:01:19.673Z,7.07
2023-10-09T15:03:50.460Z,7.28
2023-10-09T15:06:19.702Z,7.25
2023-10-09T15:08:47.775Z,8.00
2023-10-09T15:11:15.975Z,8.30
2023-10-09T15:13:43.945Z,7.50
2023-10-09T15:16:12.693Z,7.40
2023-10-09T15:18:40.421Z,6.55
2023-10-09T15:21:10.012Z,7.45
2023-10-09T15:23:38.272Z,7.22
2023-10-09T15:26:08.164Z,6.97
2023-10-09T15:28:36.449Z,7.03
2023-10-09T15:31:05.090Z,6.65
2023-10-09T15:33:36.157Z,7.25
2023-10-09T15:36:13.093Z,6.78
2023-10-09T15:38:40.765Z,6.60
2023-10-09T15:41:08.829Z,6.57
2023-10-09T15:43:37.390Z,7.20
2023-10-09T15:46:05.775Z,7.38
2023-10-09T15:48:34.184Z,6.78
2023-10-09T15:51:02.138Z,6.97
2023-10-09T15:53:32.060Z,6.65
2023-10-09T15:55:59.848Z,6.65
2023-10-09T15:58:27.897Z,8.00
2023-10-09T16:00:55.647Z,7.45
2023-10-09T16:03:25.520Z,6.95
2023-10-09T16:05:53.455Z,7.68
2023-10-09T16:08:23.914Z,7.28
2023-10-09T16:10:53.048Z,7.03
2023-10-09T16:13:22.534Z,6.80
2023-10-09T16:15:50.841Z,6.45
2023-10-09T16:18:21.859Z,7.28
2023-10-09T16:20:50.363Z,8.52
2023-10-09T16:23:21.114Z,7.40
2023-10-09T16:25:49.111Z,7.53
2023-10-09T16:28:18.247Z,7.05
2023-10-09T16:30:45.977Z,6.78
2023-10-09T16:33:17.400Z,8.35
2023-10-09T16:35:47.599Z,7.75
2023-10-09T16:38:15.576Z,7.85
2023-10-09T16:40:48.222Z,8.07
2023-10-09T16:43:19.258Z,7.93
2023-10-09T16:45:48.540Z,8.93
2023-10-09T16:48:16.984Z,8.13
2023-10-09T16:50:49.272Z,8.15
2023-10-09T16:53:18.106Z,7.88
2023-10-09T16:55:46.132Z,8.65
2023-10-09T16:58:14.605Z,7.63
2023-10-09T17:00:42.336Z,9.15
2023-10-09T17:03:12.682Z,8.35
2023-10-09T17:05:56.354Z,7.68
2023-10-09T17:08:24.378Z,10.38
2023-10-09T17:10:52.725Z,10.05
2023-10-09T17:13:22.263Z,9.90
2023-10-09T17:15:54.336Z,10.02
2023-10-09T17:18:26.344Z,9.52
2023-10-09T17:20:57.094Z,8.90
2023-10-09T17:23:27.386Z,9.10
2023-10-09T17:25:59.717Z,9.10
2023-10-09T17:28:28.511Z,8.98
2023-10-09T17:31:01.861Z,8.52
2023-10-09T17:33:34.613Z,9.52
2023-10-09T17:36:03.091Z,8.77
2023-10-09T17:38:33.429Z,9.60
2023-10-09T17:41:06.479Z,9.50
2023-10-09T17:43:36.628Z,11.30
2023-10-09T17:46:05.581Z,11.73
2023-10-09T17:48:35.198Z,10.75
2023-10-09T17:51:02.945Z,11.45
2023-10-09T17:53:31.846Z,9.30
2023-10-09T17:56:01.145Z,11.18
2023-10-09T17:58:29.571Z,11.38
2023-10-09T18:00:59.787Z,11.38
2023-10-09T18:03:31.282Z,11.77
2023-10-09T18:06:01.580Z,11.73
2023-10-09T18:08:29.271Z,10.90
2023-10-09T18:10:58.028Z,12.18
2023-10-09T18:13:27.003Z,13.75
2023-10-09T18:16:09.435Z,11.38
2023-10-09T18:18:36.866Z,13.18
2023-10-09T18:21:07.549Z,14.00
2023-10-09T18:23:36.685Z,13.30
2023-10-09T18:26:06.210Z,12.15
2023-10-09T18:28:38.144Z,11.63
2023-10-09T18:31:13.989Z,11.38
2023-10-09T18:33:43.620Z,11.32
2023-10-09T18:36:13.218Z,10.82
2023-10-09T18:38:44.057Z,10.90
2023-10-09T18:41:12.305Z,11.57
2023-10-09T18:43:41.143Z,11.32
2023-10-09T18:46:12.033Z,11.80
2023-10-09T18:48:39.988Z,13.00
2023-10-09T18:51:08.781Z,13.52
2023-10-09T18:53:38.219Z,12.65
2023-10-09T18:56:07.091Z,11.90
2023-10-09T18:58:35.137Z,12.98
2023-10-09T19:01:07.668Z,13.10
2023-10-09T19:03:35.484Z,12.18
2023-10-09T19:06:09.254Z,13.43
2023-10-09T19:08:38.932Z,13.85
2023-10-09T19:11:10.385Z,12.30
2023-10-09T19:13:39.939Z,11.57
2023-10-09T19:16:08.267Z,13.80
2023-10-09T19:18:38.957Z,14.38
2023-10-09T19:21:10.363Z,15.20
2023-10-09T19:23:40.766Z,15.35
2023-10-09T19:26:09.840Z,14.05
2023-10-09T19:28:39.100Z,13.30
2023-10-09T19:31:07.219Z,12.98
2023-10-09T19:33:36.847Z,12.98
2023-10-09T19:36:12.259Z,14.18
2023-10-09T19:38:41.542Z,15.20
2023-10-09T19:41:11.504Z,19.15
2023-10-09T19:43:39.302Z,20.17
2023-10-09T19:46:07.653Z,21.83
2023-10-09T19:48:35.843Z,24.13
2023-10-09T19:51:04.448Z,25.48
2023-10-09T19:53:32.372Z,24.02
2023-10-09T19:56:01.652Z,24.48
2023-10-09T19:58:33.140Z,21.52
2023-10-09T20:01:00.870Z,23.17
2023-10-09T20:03:29.136Z,23.35
2023-10-09T20:05:57.704Z,20.25
2023-10-09T20:08:30.537Z,18.27
2023-10-09T20:10:58.295Z,18.52
2023-10-09T20:13:27.278Z,17.20
2023-10-09T20:15:57.590Z,19.90
2023-10-09T20:18:25.357Z,20.13
2023-10-09T20:20:53.059Z,15.13
2023-10-09T20:23:22.142Z,13.52
2023-10-09T20:26:00.069Z,13.75
2023-10-09T20:28:30.187Z,13.02
2023-10-09T20:31:02.274Z,14.80
2023-10-09T20:33:34.521Z,14.80
2023-10-09T20:36:06.730Z,16.25
2023-10-09T20:38:34.499Z,16.38
2023-10-09T20:41:08.857Z,17.85
2023-10-09T20:43:41.926Z,17.00
2023-10-09T20:46:10.016Z,17.63
2023-10-09T20:48:38.590Z,16.20
2023-10-09T20:51:06.660Z,13.43
2023-10-09T20:53:35.641Z,14.63
2023-10-09T20:56:05.519Z,17.42
2023-10-09T20:58:34.058Z,19.75
2023-10-09T21:01:13.124Z,15.73
2023-10-09T21:03:41.016Z,23.13
2023-10-09T21:06:08.780Z,22.95
2023-10-09T21:08:36.674Z,22.85
2023-10-09T21:11:05.089Z,21.45
2023-10-09T21:13:33.584Z,29.50
2023-10-09T21:16:05.520Z,29.50
2023-10-09T21:18:36.499Z,30.35
2023-10-09T21:21:10.234Z,29.23
2023-10-09T21:23:38.048Z,29.70
2023-10-09T21:26:06.620Z,26.55
2023-10-09T21:28:36.688Z,23.35
2023-10-09T21:31:05.851Z,24.45
2023-10-09T21:33:35.393Z,24.77
2023-10-09T21:36:04.600Z,21.38
2023-10-09T21:38:32.304Z,31.45
2023-10-09T21:41:00.639Z,20.83
2023-10-09T21:43:32.294Z,39.60
2023-10-09T21:45:59.951Z,41.33
2023-10-09T21:48:27.723Z,28.75
2023-10-09T21:50:59.185Z,26.70
2023-10-09T21:53:29.018Z,27.10
2023-10-09T21:56:04.073Z,29.92
2023-10-09T21:58:33.334Z,29.35
2023-10-09T22:01:04.119Z,29.77
2023-10-09T22:03:32.412Z,35.30
2023-10-09T22:06:01.683Z,37.03
2023-10-09T22:08:29.816Z,35.22
2023-10-09T22:10:57.690Z,33.85
2023-10-09T22:13:27.442Z,32.38
2023-10-09T22:15:55.235Z,31.98
2023-10-09T22:18:24.976Z,31.92
2023-10-09T22:20:54.888Z,30.52
2023-10-09T22:23:34.049Z,34.70
2023-10-09T22:26:02.754Z,28.50
2023-10-09T22:28:34.472Z,35.28
2023-10-09T22:31:05.110Z,32.75
2023-10-09T22:33:46.725Z,35.92
2023-10-09T22:36:15.542Z,32.10
2023-10-09T22:38:44.965Z,25.95
2023-10-09T22:41:20.958Z,27.73
2023-10-09T22:43:49.720Z,34.30
2023-10-09T22:46:20.742Z,39.88
2023-10-09T22:48:52.684Z,39.85
2023-10-09T22:51:24.992Z,38.47
2023-10-09T22:53:54.055Z,39.63
2023-10-09T22:56:22.317Z,34.58
2023-10-09T22:58:53.048Z,34.60
2023-10-09T23:01:24.170Z,34.70
2023-10-09T23:04:17.146Z,38.15
2023-10-09T23:06:46.418Z,39.35
2023-10-09T23:09:32.082Z,34.88
2023-10-09T23:12:00.806Z,32.00
2023-10-09T23:14:28.870Z,28.38
2023-10-09T23:17:00.493Z,24.67
2023-10-09T23:19:41.539Z,26.77
2023-10-09T23:22:09.297Z,30.15
2023-10-09T23:24:50.383Z,26.80
2023-10-09T23:27:39.337Z,26.95
2023-10-09T23:30:13.796Z,27.13
2023-10-09T23:32:48.470Z,26.38
2023-10-09T23:35:20.906Z,24.92
2023-10-09T23:38:06.406Z,27.70
2023-10-09T23:40:41.895Z,24.13
2023-10-09T23:43:14.536Z,20.15
2023-10-09T23:45:42.611Z,20.10
2023-10-09T23:48:15.951Z,19.88
2023-10-09T23:50:45.272Z,24.08
2023-10-09T23:53:16.056Z,23.55
2023-10-09T23:55:45.935Z,25.05
2023-10-09T23:58:20.102Z,23.38
